sensor_id;sensor_type;location;lat;lon;timestamp;pressure;altitude;pressure_sealevel;temperature;humidity
71043;BME280;58696;52.134;5.500;2022-12-15T00:02:01;100805.38;;;-5.89;84.07
71043;BME280;58696;52.134;5.500;2022-12-15T00:04:48;100809.72;;;-5.93;84.16
71043;BME280;58696;52.134;5.500;2022-12-15T00:07:36;100804.47;;;-5.88;84.30
71043;BME280;58696;52.134;5.500;2022-12-15T00:10:21;100809.47;;;-5.88;84.34
71043;BME280;58696;52.134;5.500;2022-12-15T00:13:10;100796.25;;;-5.90;84.40
71043;BME280;58696;52.134;5.500;2022-12-15T00:15:57;100800.56;;;-5.92;84.18
71043;BME280;58696;52.134;5.500;2022-12-15T00:18:43;100803.88;;;-5.92;84.21
71043;BME280;58696;52.134;5.500;2022-12-15T00:21:28;100805.56;;;-5.92;84.33
71043;BME280;58696;52.134;5.500;2022-12-15T00:24:14;100814.09;;;-5.96;84.23
71043;BME280;58696;52.134;5.500;2022-12-15T00:26:59;100819.47;;;-6.04;84.18
71043;BME280;58696;52.134;5.500;2022-12-15T00:29:44;100815.66;;;-6.11;84.40
71043;BME280;58696;52.134;5.500;2022-12-15T00:32:30;100823.16;;;-6.11;84.58
71043;BME280;58696;52.134;5.500;2022-12-15T00:35:15;100813.09;;;-6.10;84.45
71043;BME280;58696;52.134;5.500;2022-12-15T00:38:09;100808.34;;;-6.14;84.47
71043;BME280;58696;52.134;5.500;2022-12-15T00:40:59;100812.66;;;-6.18;84.32
71043;BME280;58696;52.134;5.500;2022-12-15T00:43:29;100810.75;;;-6.13;84.64
71043;BME280;58696;52.134;5.500;2022-12-15T00:45:58;100822.28;;;-6.10;84.92
71043;BME280;58696;52.134;5.500;2022-12-15T00:48:44;100823.16;;;-6.11;84.83
71043;BME280;58696;52.134;5.500;2022-12-15T00:51:13;100832.28;;;-6.10;84.87
71043;BME280;58696;52.134;5.500;2022-12-15T00:53:42;100838.09;;;-6.10;84.80
71043;BME280;58696;52.134;5.500;2022-12-15T00:56:28;100837.28;;;-6.10;84.77
71043;BME280;58696;52.134;5.500;2022-12-15T00:59:13;100828.25;;;-6.13;84.67
71043;BME280;58696;52.134;5.500;2022-12-15T01:02:00;100829.19;;;-6.15;84.88
71043;BME280;58696;52.134;5.500;2022-12-15T01:04:49;100822.75;;;-6.19;84.89
71043;BME280;58696;52.134;5.500;2022-12-15T01:07:37;100828.59;;;-6.20;84.56
71043;BME280;58696;52.134;5.500;2022-12-15T01:10:22;100830.25;;;-6.19;84.58
71043;BME280;58696;52.134;5.500;2022-12-15T01:13:11;100835.16;;;-6.18;84.82
71043;BME280;58696;52.134;5.500;2022-12-15T01:15:57;100836.13;;;-6.20;84.83
71043;BME280;58696;52.134;5.500;2022-12-15T01:18:45;100835.47;;;-6.24;85.09
71043;BME280;58696;52.134;5.500;2022-12-15T01:21:30;100834.88;;;-6.29;85.03
71043;BME280;58696;52.134;5.500;2022-12-15T01:23:57;100838.31;;;-6.31;84.81
71043;BME280;58696;52.134;5.500;2022-12-15T01:26:24;100851.00;;;-6.34;84.94
71043;BME280;58696;52.134;5.500;2022-12-15T01:28:54;100854.28;;;-6.34;84.92
71043;BME280;58696;52.134;5.500;2022-12-15T01:31:21;100863.50;;;-6.34;84.61
71043;BME280;58696;52.134;5.500;2022-12-15T01:33:47;100854.44;;;-6.37;85.20
71043;BME280;58696;52.134;5.500;2022-12-15T01:36:14;100852.97;;;-6.41;85.10
71043;BME280;58696;52.134;5.500;2022-12-15T01:38:44;100851.41;;;-6.44;84.85
71043;BME280;58696;52.134;5.500;2022-12-15T01:41:21;100864.81;;;-6.45;84.78
71043;BME280;58696;52.134;5.500;2022-12-15T01:43:48;100862.97;;;-6.41;85.29
71043;BME280;58696;52.134;5.500;2022-12-15T01:46:20;100860.53;;;-6.43;85.42
71043;BME280;58696;52.134;5.500;2022-12-15T01:48:55;100858.78;;;-6.41;85.34
71043;BME280;58696;52.134;5.500;2022-12-15T01:51:34;100864.31;;;-6.34;85.43
71043;BME280;58696;52.134;5.500;2022-12-15T01:54:09;100864.31;;;-6.34;85.25
71043;BME280;58696;52.134;5.500;2022-12-15T01:56:47;100874.22;;;-6.32;85.41
71043;BME280;58696;52.134;5.500;2022-12-15T01:59:22;100872.31;;;-6.27;85.64
71043;BME280;58696;52.134;5.500;2022-12-15T02:01:55;100875.47;;;-6.24;85.46
71043;BME280;58696;52.134;5.500;2022-12-15T02:04:23;100870.47;;;-6.24;85.64
71043;BME280;58696;52.134;5.500;2022-12-15T02:06:50;100880.53;;;-6.25;85.56
71043;BME280;58696;52.134;5.500;2022-12-15T02:09:19;100888.03;;;-6.25;85.91
71043;BME280;58696;52.134;5.500;2022-12-15T02:15:06;100883.88;;;-6.25;85.90
71043;BME280;58696;52.134;5.500;2022-12-15T02:23:28;100880.91;;;-6.16;86.27
71043;BME280;58696;52.134;5.500;2022-12-15T02:29:10;100870.03;;;-6.15;86.18
71043;BME280;58696;52.134;5.500;2022-12-15T02:31:59;100875.03;;;-6.15;85.96
71043;BME280;58696;52.134;5.500;2022-12-15T02:34:40;100873.56;;;-6.19;86.00
71043;BME280;58696;52.134;5.500;2022-12-15T02:37:30;100879.69;;;-6.24;85.79
71043;BME280;58696;52.134;5.500;2022-12-15T02:39:57;100882.22;;;-6.26;86.19
71043;BME280;58696;52.134;5.500;2022-12-15T02:42:28;100877.22;;;-6.26;86.18
71043;BME280;58696;52.134;5.500;2022-12-15T02:44:59;100878.34;;;-6.31;86.14
71043;BME280;58696;52.134;5.500;2022-12-15T02:50:22;100884.22;;;-6.32;86.45
71043;BME280;58696;52.134;5.500;2022-12-15T02:55:58;100885.09;;;-6.33;86.21
71043;BME280;58696;52.134;5.500;2022-12-15T03:04:09;100885.91;;;-6.33;86.21
71043;BME280;58696;52.134;5.500;2022-12-15T03:06:37;100889.31;;;-6.34;86.35
71043;BME280;58696;52.134;5.500;2022-12-15T03:09:04;100895.91;;;-6.33;86.15
71043;BME280;58696;52.134;5.500;2022-12-15T03:11:31;100899.97;;;-6.30;86.42
71043;BME280;58696;52.134;5.500;2022-12-15T03:13:59;100894.13;;;-6.31;86.38
71043;BME280;58696;52.134;5.500;2022-12-15T03:16:28;100895.78;;;-6.30;86.66
71043;BME280;58696;52.134;5.500;2022-12-15T03:18:55;100910.91;;;-6.33;86.44
71043;BME280;58696;52.134;5.500;2022-12-15T03:21:22;100911.06;;;-6.36;86.62
71043;BME280;58696;52.134;5.500;2022-12-15T03:23:48;100906.66;;;-6.31;86.45
71043;BME280;58696;52.134;5.500;2022-12-15T03:26:20;100909.97;;;-6.30;86.73
71043;BME280;58696;52.134;5.500;2022-12-15T03:28:47;100915.13;;;-6.33;86.60
71043;BME280;58696;52.134;5.500;2022-12-15T03:31:15;100911.13;;;-6.38;86.84
71043;BME280;58696;52.134;5.500;2022-12-15T03:33:42;100915.41;;;-6.40;86.38
71043;BME280;58696;52.134;5.500;2022-12-15T03:36:09;100918.19;;;-6.46;86.41
71043;BME280;58696;52.134;5.500;2022-12-15T03:38:41;100917.31;;;-6.45;86.74
71043;BME280;58696;52.134;5.500;2022-12-15T03:41:07;100905.69;;;-6.46;86.61
71043;BME280;58696;52.134;5.500;2022-12-15T03:43:35;100907.44;;;-6.48;86.60
71043;BME280;58696;52.134;5.500;2022-12-15T03:46:02;100917.59;;;-6.51;86.40
71043;BME280;58696;52.134;5.500;2022-12-15T03:48:29;100918.69;;;-6.56;86.44
71043;BME280;58696;52.134;5.500;2022-12-15T03:50:56;100916.38;;;-6.61;86.34
71043;BME280;58696;52.134;5.500;2022-12-15T03:53:24;100924.16;;;-6.67;86.48
71043;BME280;58696;52.134;5.500;2022-12-15T03:55:51;100925.38;;;-6.76;86.37
71043;BME280;58696;52.134;5.500;2022-12-15T03:58:18;100914.38;;;-6.72;86.33
71043;BME280;58696;52.134;5.500;2022-12-15T04:00:48;100911.75;;;-6.69;86.43
71043;BME280;58696;52.134;5.500;2022-12-15T04:03:14;100907.56;;;-6.68;86.61
71043;BME280;58696;52.134;5.500;2022-12-15T04:05:41;100908.28;;;-6.66;86.67
71043;BME280;58696;52.134;5.500;2022-12-15T04:08:08;100904.91;;;-6.65;86.48
71043;BME280;58696;52.134;5.500;2022-12-15T04:10:37;100917.47;;;-6.67;86.92
71043;BME280;58696;52.134;5.500;2022-12-15T04:13:09;100915.66;;;-6.63;87.01
71043;BME280;58696;52.134;5.500;2022-12-15T04:15:38;100925.66;;;-6.63;86.59
71043;BME280;58696;52.134;5.500;2022-12-15T04:18:05;100920.66;;;-6.63;86.58
71043;BME280;58696;52.134;5.500;2022-12-15T04:20:32;100916.47;;;-6.63;86.71
71043;BME280;58696;52.134;5.500;2022-12-15T04:23:02;100927.31;;;-6.64;86.67
71043;BME280;58696;52.134;5.500;2022-12-15T04:25:29;100921.59;;;-6.66;86.92
71043;BME280;58696;52.134;5.500;2022-12-15T04:28:14;100921.75;;;-6.69;86.93
71043;BME280;58696;52.134;5.500;2022-12-15T04:31:06;100925.88;;;-6.68;86.83
71043;BME280;58696;52.134;5.500;2022-12-15T04:33:55;100927.31;;;-6.64;86.89
71043;BME280;58696;52.134;5.500;2022-12-15T04:36:43;100921.50;;;-6.64;87.01
71043;BME280;58696;52.134;5.500;2022-12-15T04:39:29;100926.75;;;-6.69;86.85
71043;BME280;58696;52.134;5.500;2022-12-15T04:42:14;100928.56;;;-6.72;86.69
71043;BME280;58696;52.134;5.500;2022-12-15T04:45:04;100933.63;;;-6.74;86.95
71043;BME280;58696;52.134;5.500;2022-12-15T04:47:51;100937.75;;;-6.73;87.03
71043;BME280;58696;52.134;5.500;2022-12-15T04:50:36;100921.66;;;-6.67;86.93
71043;BME280;58696;52.134;5.500;2022-12-15T04:53:22;100922.19;;;-6.60;87.01
71043;BME280;58696;52.134;5.500;2022-12-15T04:56:13;100930.41;;;-6.58;87.37
71043;BME280;58696;52.134;5.500;2022-12-15T04:58:59;100923.81;;;-6.59;87.29
71043;BME280;58696;52.134;5.500;2022-12-15T05:01:45;100931.09;;;-6.55;87.07
71043;BME280;58696;52.134;5.500;2022-12-15T05:04:33;100933.53;;;-6.53;87.37
71043;BME280;58696;52.134;5.500;2022-12-15T05:07:23;100940.97;;;-6.52;87.24
71043;BME280;58696;52.134;5.500;2022-12-15T05:10:08;100932.72;;;-6.54;87.41
71043;BME280;58696;52.134;5.500;2022-12-15T05:12:54;100939.47;;;-6.56;87.46
71043;BME280;58696;52.134;5.500;2022-12-15T05:15:39;100943.53;;;-6.53;87.29
71043;BME280;58696;52.134;5.500;2022-12-15T05:18:25;100937.59;;;-6.51;87.06
71043;BME280;58696;52.134;5.500;2022-12-15T05:21:10;100935.81;;;-6.49;87.11
71043;BME280;58696;52.134;5.500;2022-12-15T05:23:56;100942.66;;;-6.52;87.38
71043;BME280;58696;52.134;5.500;2022-12-15T05:26:42;100942.66;;;-6.52;87.24
71043;BME280;58696;52.134;5.500;2022-12-15T05:29:28;100945.16;;;-6.52;87.57
71043;BME280;58696;52.134;5.500;2022-12-15T05:32:13;100946.63;;;-6.48;87.27
71043;BME280;58696;52.134;5.500;2022-12-15T05:34:41;100943.25;;;-6.47;87.28
71043;BME280;58696;52.134;5.500;2022-12-15T05:37:07;100940.69;;;-6.46;87.22
71043;BME280;58696;52.134;5.500;2022-12-15T05:39:34;100939.00;;;-6.45;87.29
71043;BME280;58696;52.134;5.500;2022-12-15T05:42:02;100940.53;;;-6.43;87.75
71043;BME280;58696;52.134;5.500;2022-12-15T05:44:29;100947.16;;;-6.42;87.55
71043;BME280;58696;52.134;5.500;2022-12-15T05:46:56;100944.66;;;-6.42;87.55
71043;BME280;58696;52.134;5.500;2022-12-15T05:49:23;100941.34;;;-6.42;87.79
71043;BME280;58696;52.134;5.500;2022-12-15T05:51:50;100946.34;;;-6.42;87.63
71043;BME280;58696;52.134;5.500;2022-12-15T05:54:18;100953.84;;;-6.42;87.92
71043;BME280;58696;52.134;5.500;2022-12-15T05:56:45;100963.22;;;-6.47;87.80
71043;BME280;58696;52.134;5.500;2022-12-15T05:59:16;100963.50;;;-6.53;87.28
71043;BME280;58696;52.134;5.500;2022-12-15T06:01:44;100973.16;;;-6.63;87.41
71043;BME280;58696;52.134;5.500;2022-12-15T06:04:12;100982.38;;;-6.65;87.61
71043;BME280;58696;52.134;5.500;2022-12-15T06:06:39;100981.72;;;-6.69;87.33
71043;BME280;58696;52.134;5.500;2022-12-15T06:09:09;100973.19;;;-6.65;87.60
71043;BME280;58696;52.134;5.500;2022-12-15T06:11:36;100978.94;;;-6.63;87.20
71043;BME280;58696;52.134;5.500;2022-12-15T06:14:03;100976.56;;;-6.66;87.15
71043;BME280;58696;52.134;5.500;2022-12-15T06:16:32;100980.16;;;-6.71;87.21
71043;BME280;58696;52.134;5.500;2022-12-15T06:19:05;100983.63;;;-6.74;87.27
71043;BME280;58696;52.134;5.500;2022-12-15T06:21:33;100981.13;;;-6.74;87.18
71043;BME280;58696;52.134;5.500;2022-12-15T06:24:06;100986.72;;;-6.69;87.40
71043;BME280;58696;52.134;5.500;2022-12-15T06:26:37;100984.22;;;-6.69;87.66
71043;BME280;58696;52.134;5.500;2022-12-15T06:29:06;100970.69;;;-6.65;87.65
71043;BME280;58696;52.134;5.500;2022-12-15T06:31:39;100972.25;;;-6.62;87.69
71043;BME280;58696;52.134;5.500;2022-12-15T06:34:10;100977.19;;;-6.60;87.49
71043;BME280;58696;52.134;5.500;2022-12-15T06:36:37;100978.94;;;-6.63;87.41
71043;BME280;58696;52.134;5.500;2022-12-15T06:39:06;100988.13;;;-6.63;87.68
71043;BME280;58696;52.134;5.500;2022-12-15T06:41:34;100983.19;;;-6.65;87.48
71043;BME280;58696;52.134;5.500;2022-12-15T06:44:04;100983.19;;;-6.65;87.72
71043;BME280;58696;52.134;5.500;2022-12-15T06:46:33;100984.81;;;-6.64;87.75
71043;BME280;58696;52.134;5.500;2022-12-15T06:49:00;100993.88;;;-6.61;87.68
71043;BME280;58696;52.134;5.500;2022-12-15T06:51:28;101000.41;;;-6.58;87.78
71043;BME280;58696;52.134;5.500;2022-12-15T06:53:55;100991.22;;;-6.58;87.63
71043;BME280;58696;52.134;5.500;2022-12-15T06:56:30;100997.84;;;-6.57;87.82
71043;BME280;58696;52.134;5.500;2022-12-15T06:59:01;100993.66;;;-6.56;87.88
71043;BME280;58696;52.134;5.500;2022-12-15T07:01:29;100993.50;;;-6.53;87.95
71043;BME280;58696;52.134;5.500;2022-12-15T07:03:56;100991.91;;;-6.54;87.75
71043;BME280;58696;52.134;5.500;2022-12-15T07:06:26;100981.91;;;-6.54;87.57
71043;BME280;58696;52.134;5.500;2022-12-15T07:08:53;100990.28;;;-6.55;87.58
71043;BME280;58696;52.134;5.500;2022-12-15T07:11:23;100989.56;;;-6.57;87.95
71043;BME280;58696;52.134;5.500;2022-12-15T07:13:51;100995.69;;;-6.65;87.64
71043;BME280;58696;52.134;5.500;2022-12-15T07:16:18;100992.25;;;-6.62;88.07
71043;BME280;58696;52.134;5.500;2022-12-15T07:18:45;100996.28;;;-6.59;87.98
71043;BME280;58696;52.134;5.500;2022-12-15T07:21:12;100990.28;;;-6.55;87.72
71043;BME280;58696;52.134;5.500;2022-12-15T07:23:40;101002.66;;;-6.52;87.82
71043;BME280;58696;52.134;5.500;2022-12-15T07:26:24;101001.81;;;-6.53;87.86
71043;BME280;58696;52.134;5.500;2022-12-15T07:28:51;101000.28;;;-6.55;88.02
71043;BME280;58696;52.134;5.500;2022-12-15T07:31:22;101016.22;;;-6.58;87.77
71043;BME280;58696;52.134;5.500;2022-12-15T07:33:49;101016.34;;;-6.61;87.75
71043;BME280;58696;52.134;5.500;2022-12-15T07:36:19;101010.63;;;-6.63;87.58
71043;BME280;58696;52.134;5.500;2022-12-15T07:38:50;101008.06;;;-6.62;87.68
71043;BME280;58696;52.134;5.500;2022-12-15T07:41:19;101007.16;;;-6.60;87.78
71043;BME280;58696;52.134;5.500;2022-12-15T07:43:46;101012.97;;;-6.60;87.72
71043;BME280;58696;52.134;5.500;2022-12-15T07:46:14;101014.53;;;-6.57;87.60
71043;BME280;58696;52.134;5.500;2022-12-15T07:48:41;101016.78;;;-6.51;87.66
71043;BME280;58696;52.134;5.500;2022-12-15T07:51:08;101018.91;;;-6.44;87.69
71043;BME280;58696;52.134;5.500;2022-12-15T07:53:44;101021.94;;;-6.37;87.77
71043;BME280;58696;52.134;5.500;2022-12-15T07:56:11;101019.25;;;-6.32;88.16
71043;BME280;58696;52.134;5.500;2022-12-15T07:58:39;101025.72;;;-6.28;87.93
71043;BME280;58696;52.134;5.500;2022-12-15T08:01:09;101029.66;;;-6.23;88.13
71043;BME280;58696;52.134;5.500;2022-12-15T08:03:39;101036.78;;;-6.15;87.97
71043;BME280;58696;52.134;5.500;2022-12-15T08:06:09;101041.47;;;-6.07;87.90
71043;BME280;58696;52.134;5.500;2022-12-15T08:08:37;101045.16;;;-5.97;87.92
71043;BME280;58696;52.134;5.500;2022-12-15T08:11:08;101048.84;;;-5.87;88.29
71043;BME280;58696;52.134;5.500;2022-12-15T08:13:39;101039.34;;;-5.80;88.22
71043;BME280;58696;52.134;5.500;2022-12-15T08:16:27;101037.44;;;-5.75;88.34
71043;BME280;58696;52.134;5.500;2022-12-15T08:18:55;101043.53;;;-5.64;88.19
71043;BME280;58696;52.134;5.500;2022-12-15T08:21:25;101037.53;;;-5.60;88.06
71043;BME280;58696;52.134;5.500;2022-12-15T08:23:52;101040.28;;;-5.14;88.37
71043;BME280;58696;52.134;5.500;2022-12-15T08:26:21;101043.84;;;-4.69;87.85
71043;BME280;58696;52.134;5.500;2022-12-15T08:28:59;101031.38;;;-3.91;86.44
71043;BME280;58696;52.134;5.500;2022-12-15T08:31:46;101043.66;;;-3.87;85.48
71043;BME280;58696;52.134;5.500;2022-12-15T08:34:13;101038.50;;;-3.39;85.07
71043;BME280;58696;52.134;5.500;2022-12-15T08:36:40;101048.25;;;-2.91;83.90
71043;BME280;58696;52.134;5.500;2022-12-15T08:39:10;101044.38;;;-2.96;82.14
71043;BME280;58696;52.134;5.500;2022-12-15T08:41:36;101059.94;;;-3.04;82.38
71043;BME280;58696;52.134;5.500;2022-12-15T08:44:03;101060.09;;;-2.50;82.38
71043;BME280;58696;52.134;5.500;2022-12-15T08:46:32;101064.59;;;-2.14;80.50
71043;BME280;58696;52.134;5.500;2022-12-15T08:49:03;101062.56;;;-1.94;79.68
71043;BME280;58696;52.134;5.500;2022-12-15T08:51:33;101058.50;;;-1.97;78.88
71043;BME280;58696;52.134;5.500;2022-12-15T08:54:00;101065.50;;;-2.70;79.25
71043;BME280;58696;52.134;5.500;2022-12-15T08:56:28;101070.84;;;-3.19;81.33
71043;BME280;58696;52.134;5.500;2022-12-15T08:59:01;101070.72;;;-3.32;81.68
71043;BME280;58696;52.134;5.500;2022-12-15T09:01:30;101073.19;;;-3.30;82.72
71043;BME280;58696;52.134;5.500;2022-12-15T09:04:05;101073.19;;;-3.16;82.94
71043;BME280;58696;52.134;5.500;2022-12-15T09:06:33;101059.28;;;-2.79;83.36
71043;BME280;58696;52.134;5.500;2022-12-15T09:09:04;101063.84;;;-2.28;82.74
71043;BME280;58696;52.134;5.500;2022-12-15T09:11:31;101062.81;;;-1.72;81.56
71043;BME280;58696;52.134;5.500;2022-12-15T09:13:58;101057.84;;;-1.34;80.54
71043;BME280;58696;52.134;5.500;2022-12-15T09:16:25;101068.53;;;-1.04;79.93
71043;BME280;58696;52.134;5.500;2022-12-15T09:18:55;101065.97;;;-0.66;79.16
71043;BME280;58696;52.134;5.500;2022-12-15T09:21:27;101062.59;;;-0.41;78.27
71043;BME280;58696;52.134;5.500;2022-12-15T09:23:57;101064.41;;;-0.31;77.53
71043;BME280;58696;52.134;5.500;2022-12-15T09:26:31;101065.75;;;-0.14;77.47
71043;BME280;58696;52.134;5.500;2022-12-15T09:28:59;101067.28;;;0.24;76.57
71043;BME280;58696;52.134;5.500;2022-12-15T09:31:35;101077.19;;;0.62;75.57
71043;BME280;58696;52.134;5.500;2022-12-15T09:34:02;101064.25;;;1.23;74.40
71043;BME280;58696;52.134;5.500;2022-12-15T09:36:30;101073.03;;;1.73;72.68
71043;BME280;58696;52.134;5.500;2022-12-15T09:38:59;101077.63;;;2.44;70.83
71043;BME280;58696;52.134;5.500;2022-12-15T09:41:29;101070.28;;;2.61;69.64
71043;BME280;58696;52.134;5.500;2022-12-15T09:44:17;101077.25;;;2.69;69.54
71043;BME280;58696;52.134;5.500;2022-12-15T09:52:28;101091.59;;;3.01;68.20
71043;BME280;58696;52.134;5.500;2022-12-15T09:54:57;101104.75;;;2.85;68.68
71043;BME280;58696;52.134;5.500;2022-12-15T10:08:39;101108.41;;;3.73;67.22
71043;BME280;58696;52.134;5.500;2022-12-15T10:11:18;101103.69;;;3.58;66.08
71043;BME280;58696;52.134;5.500;2022-12-15T10:13:57;101106.28;;;3.28;67.21
71043;BME280;58696;52.134;5.500;2022-12-15T10:16:53;101110.53;;;3.58;67.34
71043;BME280;58696;52.134;5.500;2022-12-15T10:22:01;101106.88;;;4.59;64.18
71043;BME280;58696;52.134;5.500;2022-12-15T10:24:30;101108.28;;;4.81;62.68
71043;BME280;58696;52.134;5.500;2022-12-15T10:30:11;101106.47;;;4.54;63.68
71043;BME280;58696;52.134;5.500;2022-12-15T10:33:16;101099.63;;;5.11;62.34
71043;BME280;58696;52.134;5.500;2022-12-15T10:35:46;101097.25;;;4.99;62.36
71043;BME280;58696;52.134;5.500;2022-12-15T10:38:23;101108.19;;;5.10;61.98
71043;BME280;58696;52.134;5.500;2022-12-15T10:41:16;101104.66;;;5.30;61.82
71043;BME280;58696;52.134;5.500;2022-12-15T10:43:47;101111.66;;;5.28;61.26
71043;BME280;58696;52.134;5.500;2022-12-15T10:46:17;101115.50;;;5.32;61.50
71043;BME280;58696;52.134;5.500;2022-12-15T10:51:34;101116.41;;;5.04;62.07
71043;BME280;58696;52.134;5.500;2022-12-15T10:56:56;101108.16;;;5.29;61.38
71043;BME280;58696;52.134;5.500;2022-12-15T10:59:34;101101.72;;;5.25;62.19
71043;BME280;58696;52.134;5.500;2022-12-15T11:02:26;101097.81;;;5.31;62.07
71043;BME280;58696;52.134;5.500;2022-12-15T11:07:39;101099.94;;;3.43;65.68
71043;BME280;58696;52.134;5.500;2022-12-15T11:12:42;101096.19;;;2.44;69.62
71043;BME280;58696;52.134;5.500;2022-12-15T11:18:04;101089.56;;;2.53;71.32
71043;BME280;58696;52.134;5.500;2022-12-15T11:20:39;101082.69;;;2.44;70.80
71043;BME280;58696;52.134;5.500;2022-12-15T11:26:00;101086.69;;;3.09;71.36
71043;BME280;58696;52.134;5.500;2022-12-15T11:28:43;101090.28;;;3.47;69.47
71043;BME280;58696;52.134;5.500;2022-12-15T11:31:25;101094.31;;;2.88;69.77
71043;BME280;58696;52.134;5.500;2022-12-15T11:33:53;101097.97;;;2.32;71.01
71043;BME280;58696;52.134;5.500;2022-12-15T11:43:28;101092.22;;;1.33;74.25
71043;BME280;58696;52.134;5.500;2022-12-15T11:45:41;101087.16;;;1.21;75.84
71043;BME280;58696;52.134;5.500;2022-12-15T11:48:16;101085.88;;;1.38;76.07
71043;BME280;58696;52.134;5.500;2022-12-15T11:50:58;101094.03;;;1.53;76.11
71043;BME280;58696;52.134;5.500;2022-12-15T11:56:30;101094.13;;;2.06;75.83
71043;BME280;58696;52.134;5.500;2022-12-15T12:07:39;101097.59;;;1.62;76.58
71043;BME280;58696;52.134;5.500;2022-12-15T12:15:37;101093.22;;;1.41;77.08
71043;BME280;58696;52.134;5.500;2022-12-15T12:18:17;101086.34;;;1.32;77.52
71043;BME280;58696;52.134;5.500;2022-12-15T12:20:48;101092.34;;;1.20;77.99
71043;BME280;58696;52.134;5.500;2022-12-15T12:26:34;101075.97;;;1.13;78.85
71043;BME280;58696;52.134;5.500;2022-12-15T12:29:33;101080.09;;;1.14;79.05
71043;BME280;58696;52.134;5.500;2022-12-15T12:32:14;101070.34;;;1.09;79.32
71043;BME280;58696;52.134;5.500;2022-12-15T12:35:06;101075.28;;;1.11;79.58
71043;BME280;58696;52.134;5.500;2022-12-15T12:38:02;101073.56;;;1.11;79.79
71043;BME280;58696;52.134;5.500;2022-12-15T12:43:07;101068.84;;;1.07;79.92
71043;BME280;58696;52.134;5.500;2022-12-15T12:45:53;101065.97;;;1.00;80.11
71043;BME280;58696;52.134;5.500;2022-12-15T12:48:37;101067.22;;;0.94;80.29
71043;BME280;58696;52.134;5.500;2022-12-15T12:51:23;101067.44;;;0.91;80.57
71043;BME280;58696;52.134;5.500;2022-12-15T12:53:52;101066.16;;;0.86;80.70
71043;BME280;58696;52.134;5.500;2022-12-15T12:56:39;101058.13;;;0.81;80.95
71043;BME280;58696;52.134;5.500;2022-12-15T13:04:59;101043.53;;;0.84;81.75
71043;BME280;58696;52.134;5.500;2022-12-15T13:07:31;101040.78;;;0.98;81.99
71043;BME280;58696;52.134;5.500;2022-12-15T13:10:21;101039.53;;;1.15;82.01
71043;BME280;58696;52.134;5.500;2022-12-15T13:12:53;101040.53;;;1.24;81.81
71043;BME280;58696;52.134;5.500;2022-12-15T13:18:10;101039.50;;;1.38;81.74
71043;BME280;58696;52.134;5.500;2022-12-15T13:20:41;101041.56;;;1.44;81.65
71043;BME280;58696;52.134;5.500;2022-12-15T13:44:46;101015.56;;;1.19;81.85
71043;BME280;58696;52.134;5.500;2022-12-15T13:50:12;101024.88;;;1.19;82.23
71043;BME280;58696;52.134;5.500;2022-12-15T13:52:47;101017.28;;;1.30;82.43
71043;BME280;58696;52.134;5.500;2022-12-15T13:55:38;101021.44;;;1.31;82.38
71043;BME280;58696;52.134;5.500;2022-12-15T13:58:12;101020.63;;;1.30;82.48
71043;BME280;58696;52.134;5.500;2022-12-15T14:00:50;101013.38;;;1.26;82.62
71043;BME280;58696;52.134;5.500;2022-12-15T14:03:18;101012.81;;;1.22;82.66
71043;BME280;58696;52.134;5.500;2022-12-15T14:05:56;101018.81;;;1.21;82.79
71043;BME280;58696;52.134;5.500;2022-12-15T14:08:26;101019.03;;;1.18;82.72
71043;BME280;58696;52.134;5.500;2022-12-15T14:10:58;101025.00;;;1.17;82.98
71043;BME280;58696;52.134;5.500;2022-12-15T14:13:43;101020.88;;;1.16;83.10
71043;BME280;58696;52.134;5.500;2022-12-15T14:16:19;101010.06;;;1.14;83.21
71043;BME280;58696;52.134;5.500;2022-12-15T14:19:15;101018.91;;;1.09;83.26
71043;BME280;58696;52.134;5.500;2022-12-15T14:21:50;101016.63;;;1.05;83.26
71043;BME280;58696;52.134;5.500;2022-12-15T14:24:24;101008.22;;;1.05;83.51
71043;BME280;58696;52.134;5.500;2022-12-15T14:27:04;101015.69;;;1.07;83.68
71043;BME280;58696;52.134;5.500;2022-12-15T14:29:31;101012.25;;;1.08;83.30
71043;BME280;58696;52.134;5.500;2022-12-15T14:32:02;101008.56;;;1.00;83.50
71043;BME280;58696;52.134;5.500;2022-12-15T14:34:34;101004.19;;;0.91;83.44
71043;BME280;58696;52.134;5.500;2022-12-15T14:37:07;100994.31;;;0.77;83.32
71043;BME280;58696;52.134;5.500;2022-12-15T14:39:41;100999.38;;;0.66;83.81
71043;BME280;58696;52.134;5.500;2022-12-15T14:42:18;100996.72;;;0.56;83.76
71043;BME280;58696;52.134;5.500;2022-12-15T14:44:49;100999.69;;;0.50;84.08
71043;BME280;58696;52.134;5.500;2022-12-15T14:47:24;100998.50;;;0.43;84.01
71043;BME280;58696;52.134;5.500;2022-12-15T14:49:56;100999.19;;;0.34;84.06
71043;BME280;58696;52.134;5.500;2022-12-15T14:52:32;100993.88;;;0.25;84.19
71043;BME280;58696;52.134;5.500;2022-12-15T14:55:38;100991.13;;;0.17;84.47
71043;BME280;58696;52.134;5.500;2022-12-15T14:58:35;100985.00;;;0.09;84.72
71043;BME280;58696;52.134;5.500;2022-12-15T15:01:27;100983.03;;;0.01;85.07
71043;BME280;58696;52.134;5.500;2022-12-15T15:04:20;100986.69;;;-0.03;85.03
71043;BME280;58696;52.134;5.500;2022-12-15T15:06:44;100990.66;;;-0.12;85.18
71043;BME280;58696;52.134;5.500;2022-12-15T15:09:24;100995.34;;;-0.18;85.20
71043;BME280;58696;52.134;5.500;2022-12-15T15:12:03;100993.56;;;-0.29;85.40
71043;BME280;58696;52.134;5.500;2022-12-15T15:14:51;100986.63;;;-0.38;85.66
71043;BME280;58696;52.134;5.500;2022-12-15T15:17:36;100987.97;;;-0.45;85.74
71043;BME280;58696;52.134;5.500;2022-12-15T15:20:20;100977.63;;;-0.54;85.81
71043;BME280;58696;52.134;5.500;2022-12-15T15:25:34;100973.53;;;-0.67;86.60
71043;BME280;58696;52.134;5.500;2022-12-15T15:30:45;100974.06;;;-0.75;86.43
71043;BME280;58696;52.134;5.500;2022-12-15T15:33:14;100975.28;;;-0.81;86.22
71043;BME280;58696;52.134;5.500;2022-12-15T15:35:45;100983.28;;;-0.87;86.51
71043;BME280;58696;52.134;5.500;2022-12-15T15:38:22;100977.75;;;-0.92;86.62
71043;BME280;58696;52.134;5.500;2022-12-15T15:40:55;100976.53;;;-0.99;86.60
71043;BME280;58696;52.134;5.500;2022-12-15T15:43:27;100976.13;;;-1.06;86.67